Adams, Oregon
Current Conditions -  °F | °C
As of 1:53 PM on Saturday 25 Oct 2014 (Local Time) from KPDT Reporting Station
Few Clouds Few Clouds  
Wind Chill: 59°   Ceiling: Unl
Heat Index: 59°   Visibility: 9mi
Dew Point: 50°   Wind: 3mph
Humidity: 72%   Direction: 40°NE
Pressure: 29.53"   Gusts: NA
Location:  45.77°N, 118.56°W
Report Text: KPDT 252053Z 04003KT 9SM FEW100 15/10 A2953 RMK AO2 SLP992 T01500100 56024
Loading
Personal Weather Stations






























Interactive Weather Map
Tropical Storm Tracking
New forecast layout! Learn more

10-Day Weather Forecast

Advertisements
Track Severe Weather on mobile